Tiempo atmosférico en la estación meteorológica de Chelva, València/Valencia (546 m.)



Fecha
DESCASC
Temp. máxima en grados centígrados (hora)
DESCASC
Temp. mínima en grados centígrados (hora)
DESCASC
Temp. media en grados centígrados
DESCASC
Racha de viento máxima en m/sg (hora)
DESCASC
Velocidad máxima media en intervalos de 10 minutos(hora)
DESCASC
Precipitaciones diarias en mm
DESCASC
Precipitaciones de 00:00 a 06:00 en mm
DESCASC
Precipitaciones de 06:00 a 12:00 en mm
DESCASC
Precipitaciones de 12:00 a 18:00 en mm
DESCASC
Precipitaciones de 18:00 a 24:00 en mm
DESCASC
18-08-2019 36.6 (15:40) 18.3 (07:30) 27.4 10 (16:50) 5.83 (15:20) 0 0 0 0 0
17-08-2019 33.9 (15:40) 18.6 (07:30) 26.3 10.28 (16:30) 5.83 (16:00) 0 0 0 0 0
16-08-2019 31.4 (15:00) 17.3 (07:20) 24.3 10.28 (17:40) 5.83 (18:10) 0 0 0 0 0
15-08-2019 32.8 (15:00) 17.8 (00:00) 25.3 11.11 (17:00) 6.11 (17:00) 0 0 0 0 0
14-08-2019 34.2 (15:30) 16.9 (00:00) 25.6 10.83 (16:30) 6.11 (16:30) 0 0 0 0 0
13-08-2019 27.3 (17:40) 19.4 (00:00) 23.3 9.72 (20:00) 5.28 (20:10) 0 0 0 0 0
12-08-2019 30.3 (14:00) 18.8 (00:00) 24.5 11.11 (18:20) 6.11 (15:30) 0 0 0 0 0
11-08-2019 35.2 (16:50) 21.4 (00:00) 28.3 10.83 (13:50) 6.11 (13:50) 0 0 0 0 0
10-08-2019 35.4 (13:40) 22.3 (00:00) 28.9 11.67 (14:00) 7.78 (14:00) 0 0 0 0 0
09-08-2019 38.2 (18:00) 20.3 (00:00) 29.3 11.94 (15:10) 5.83 (15:10) 0 0 0 0 0
08-08-2019 38 (16:40) 20.5 (00:00) 29.3 9.72 (16:00) 4.72 (18:40) 0 0 0 0 0
07-08-2019 36.6 (18:10) 20.1 (00:00) 28.3 9.17 (15:20) 5.28 (15:20) 0 0 0 0 0
06-08-2019 34.7 (16:40) 20.6 (00:00) 27.7 9.72 (16:20) 5.83 (17:20) 0 0 0 0 0
05-08-2019 34.4 (16:40) 19 (00:00) 26.7 10.28 (17:50) 6.11 (19:40) 0 0 0 0 0
04-08-2019 33.7 (15:00) 19.1 (00:00) 26.4 10 (12:40) 5.56 (16:30) 0 0 0 0 0
03-08-2019 32.8 (15:50) 16.9 (00:00) 24.8 10 (17:40) 5.83 (17:40) 0 0 0 0 0
02-08-2019 31 (14:40) 18.1 (00:00) 24.6 10.83 (14:40) 6.11 (14:50) 0 0 0 0 0
01-08-2019 31.5 (14:30) 17.7 (00:00) 24.6 10.28 (16:10) 6.39 (16:10) 0 0 0 0 0
31-07-2019 26.9 (13:30) 18.7 (00:00) 22.8 10.83 (14:00) 6.39 (12:40) 0 0 0 0 0
30-07-2019 31 (13:30) 19.3 (00:00) 25.1 12.22 (16:30) 6.67 (16:10) 0 0 0 0 0
29-07-2019 35.4 (15:40) 16.8 (00:00) 26.1 10.28 (18:20) 6.39 (18:20) 0 0 0 0 0
28-07-2019 33 (15:40) 17 (00:00) 25 11.67 (15:50) 6.67 (16:00) 0 0 0 0 0
27-07-2019 31.3 (16:10) 18 (00:00) 24.6 14.72 (18:20) 7.5 (17:30) 0 0 0 0 0
26-07-2019 32.6 (16:20) 18.4 (00:00) 25.5 11.67 (18:50) 6.67 (18:50) 0 0 0 0 0
25-07-2019 34.8 (15:20) 18.3 (00:00) 26.5 10.28 (15:30) 5.83 (18:40) 0 0 0 0 0
24-07-2019 35 (15:20) 20.2 (00:00) 27.6 10.56 (17:20) 6.39 (18:00) 0 0 0 0 0

Gráficas

Temp. máximas Temp. mínimas Temp. medias Precipitaciones Rachas de viento máximas Velocidades máximas media en intervalos de 10 minutos

Datos horarios

Fecha y hora oficial Temperatura (ºC) Velocidad del viento (km/h) Dirección del viento Racha (km/h) Dirección de racha Precipitación (mm) Presión (hPa) Tendencia (hPa) Humedad (%)
2019-08-22 23:00:00 20 0 Calma 13 Nordeste 0 -- -- 60
2019-08-22 22:00:00 21.5 8 Nordeste 13 Este 0 -- -- 56
2019-08-22 21:00:00 23 9 Este 24 Sudeste 0 -- -- 48
2019-08-22 20:00:00 25.4 14 Sudeste 33 Este 0 -- -- 45
2019-08-22 19:00:00 27.3 18 Sudeste 29 Este 0 -- -- 41
2019-08-22 18:00:00 28.8 17 Sudeste 29 Este 0 -- -- 41
2019-08-22 17:00:00 29.2 14 Sudeste 27 Sur 0 -- -- 42
2019-08-22 16:00:00 29.1 9 Sudeste 29 Este 0 -- -- 43
2019-08-22 15:00:00 28.3 12 Sudeste 26 Sur 0 -- -- 45
2019-08-22 14:00:00 27.6 10 Sudeste 24 Sudeste 0 -- -- 48
2019-08-22 13:00:00 26.7 11 Sudeste 20 Sudeste 0 -- -- 49
2019-08-22 12:00:00 25.7 4 Sudeste 12 Sudeste 0.2 -- -- 53
2019-08-22 11:00:00 22.8 4 Sudoeste 8 Sudoeste 0 -- -- 61
2019-08-22 10:00:00 19.6 3 Sudoeste 6 Sudoeste 0 -- -- 69
2019-08-22 09:00:00 16.5 6 Noroeste 14 Noroeste 0 -- -- 78
2019-08-22 08:00:00 13.9 3 Oeste 9 Oeste 0 -- -- 89
2019-08-22 07:00:00 13.8 0 Calma 7 Noroeste 0 -- -- 90
2019-08-22 06:00:00 13.9 0 Calma 6 Nordeste 0 -- -- 90
2019-08-22 05:00:00 14.3 3 Oeste 8 Este 0 -- -- 90
2019-08-22 04:00:00 14.7 4 Noroeste 8 Noroeste 0 -- -- 89
2019-08-22 03:00:00 15.1 0 Calma 12 Noroeste 0 -- -- 87
2019-08-22 02:00:00 15.7 2 Norte 21 Oeste 0 -- -- 85
2019-08-22 01:00:00 15.9 7 Oeste 12 Oeste 0 -- -- 89
2019-08-22 00:00:00 16.8 6 Noroeste 20 Noroeste 0 -- -- 88
2019-08-21 23:00:00 18.5 15 Noroeste 29 Noroeste 0 -- -- 87
2019-08-21 22:00:00 18.6 3 Oeste 18 Este 0.2 -- -- 94
2019-08-21 21:00:00 19.2 7 Nordeste 15 Este 1.6 -- -- 92
2019-08-21 20:00:00 19.4 3 Oeste 28 Nordeste 0 -- -- 93
2019-08-21 19:00:00 19.2 15 Nordeste 26 Nordeste 1.4 -- -- 94
2019-08-21 18:00:00 19.4 4 Oeste 12 Oeste 1 -- -- 94
2019-08-21 17:00:00 19.6 4 Sudeste 8 Sudoeste 1 -- -- 92
2019-08-21 16:00:00 19.2 4 Noroeste 6 Noroeste 3 -- -- 93
2019-08-21 15:00:00 19.2 2 Sur 8 Este 4 -- -- 92
2019-08-21 14:00:00 19.5 4 Este 15 Sur 0 -- -- 87
2019-08-21 13:00:00 21.2 7 Sur 17 Este 0 -- -- 79
2019-08-21 12:00:00 20.9 6 Sudeste 17 Sudeste 0 -- -- 81
2019-08-21 11:00:00 19.9 5 Sudeste 13 Este 0 -- -- 86
2019-08-21 10:00:00 19.2 3 Sur 13 Sudeste 0 -- -- 91
2019-08-21 09:00:00 18.8 4 Sudeste 12 Sur 0 -- -- 92
2019-08-21 08:00:00 19.3 4 Sudeste 10 Sudeste 0 -- -- 87
2019-08-21 07:00:00 19 2 Sur 24 Este 0 -- -- 88
2019-08-21 06:00:00 20 14 Sudeste 26 Sudeste 0 -- -- 81
2019-08-21 05:00:00 20.7 4 Sudeste 8 Sudeste 0 -- -- 75
2019-08-21 04:00:00 20.6 4 Este 13 Sudeste 0 -- -- 74
2019-08-21 03:00:00 20.7 9 Sudeste 18 Sudeste 0 -- -- 73
2019-08-21 02:00:00 21 8 Sudeste 15 Sudeste 0 -- -- 71
2019-08-21 01:00:00 21.2 8 Sudeste 16 Sudeste 0 -- -- 68
2019-08-21 00:00:00 21.2 8 Sudeste 17 Sudeste 0 -- -- 65
2019-08-20 23:00:00 21.1 9 Sudeste 22 Sudeste 0 -- -- 64
2019-08-20 22:00:00 21.3 11 Sudeste 21 Sudeste 0 -- -- 63
2019-08-20 21:00:00 22.1 12 Este 32 Este 0 -- -- 62
2019-08-20 20:00:00 22.9 18 Este 32 Este 0 -- -- 61
2019-08-20 19:00:00 23.3 16 Este 31 Este 0 -- -- 63
2019-08-20 18:00:00 23.3 13 Este 32 Este 0 -- -- 67
2019-08-20 17:00:00 24 17 Este 40 Sudeste 0 -- -- 68
2019-08-20 16:00:00 26.2 23 Este 41 Este 0 -- -- 64
2019-08-20 15:00:00 26.6 20 Sudeste 41 Sudeste 0 -- -- 65
2019-08-20 14:00:00 27.8 22 Sudeste 39 Sudeste 0 -- -- 63
2019-08-20 13:00:00 27.9 12 Sudeste 27 Sudeste 0 -- -- 59
2019-08-20 12:00:00 25.8 13 Sudeste 23 Este 0 -- -- 68
2019-08-20 11:00:00 25.3 8 Sur 14 Sur 0 -- -- 70
2019-08-20 10:00:00 24.5 5 Sudeste 9 Sur 0 -- -- 73
2019-08-20 09:00:00 23.5 3 Sudeste 5 Sudeste 0 -- -- 79
2019-08-20 08:00:00 21.6 4 Nordeste 6 Nordeste 0 -- -- 87
2019-08-20 07:00:00 21.4 0 Calma 5 Este 0 -- -- 88
2019-08-20 06:00:00 21.7 0 Calma 5 Sudeste 0 -- -- 88
2019-08-20 05:00:00 21.7 0 Calma 8 Este 0 -- -- 88
2019-08-20 04:00:00 21.7 4 Este 13 Sudeste 0 -- -- 88
2019-08-20 03:00:00 22 9 Sudeste 16 Sudeste 0 -- -- 87
2019-08-20 02:00:00 22.2 11 Sudeste 20 Sudeste 0 -- -- 87
2019-08-20 01:00:00 22.4 12 Sudeste 21 Sudeste 0 -- -- 87
2019-08-20 00:00:00 22.7 14 Sudeste 23 Este 0 -- -- 87
2019-08-19 23:00:00 23 14 Sudeste 27 Este 0 -- -- 85
2019-08-19 22:00:00 23.3 15 Sudeste 33 Sudeste 0 -- -- 84
2019-08-19 21:00:00 23.9 18 Sudeste 36 Sudeste 0 -- -- 81
2019-08-19 20:00:00 25 19 Sudeste 37 Sudeste 0 -- -- 76
2019-08-19 19:00:00 27.6 21 Sudeste 40 Sudeste 0 -- -- 66
2019-08-19 18:00:00 28.7 21 Sudeste 37 Sudeste 0 -- -- 61
2019-08-19 17:00:00 30.1 20 Sudeste 38 Sudeste 0 -- -- 55
2019-08-19 16:00:00 30.5 18 Sudeste 36 Sudeste 0 -- -- 51
2019-08-19 15:00:00 30.5 17 Sudeste 35 Este 0 -- -- 50
2019-08-19 14:00:00 30.1 15 Sudeste 30 Sudeste 0 -- -- 52
2019-08-19 13:00:00 29.3 12 Sudeste 27 Sudeste 0 -- -- 54
2019-08-19 12:00:00 27.7 12 Sudeste 27 Sudeste 0 -- -- 60
2019-08-19 11:00:00 25.4 8 Sudeste 14 Sur 0 -- -- 71
2019-08-19 10:00:00 22.6 3 Sudoeste 6 Oeste 0 -- -- 70
2019-08-19 09:00:00 20.7 4 Oeste 8 Sudoeste 0 -- -- 69
2019-08-19 08:00:00 19 2 Oeste 5 Nordeste 0 -- -- 73
2019-08-19 07:00:00 19.1 3 Nordeste 5 Nordeste 0 -- -- 72
2019-08-19 06:00:00 19.9 2 Oeste 5 Oeste 0 -- -- 72
2019-08-19 05:00:00 20.7 2 Noroeste 7 Oeste 0 -- -- 75
2019-08-19 04:00:00 21.1 3 Noroeste 8 Oeste 0 -- -- 77
2019-08-19 03:00:00 21.4 0 Calma 5 Norte 0 -- -- 77
2019-08-19 02:00:00 22.4 0 Calma 6 Este 0 -- -- 69
2019-08-19 01:00:00 23.1 0 Calma 6 Nordeste 0 -- -- 73
2019-08-19 00:00:00 24.3 3 Norte 6 Norte 0 -- -- 69
2019-08-18 23:00:00 25.3 0 Calma 8 Sudeste 0 -- -- 73
2019-08-18 22:00:00 26.6 6 Sudeste 14 Sudeste 0 -- -- 67
2019-08-18 21:00:00 28.6 -- -- -- -- 0 -- -- 54
2019-08-18 20:00:00 31.8 10 Sudeste 31 Sudeste 0 -- -- 43
2019-08-18 19:00:00 32.8 15 Sudeste 30 Sudeste 0 -- -- 44
2019-08-18 18:00:00 33.9 16 Sudeste 35 Sudeste 0 -- -- 44
2019-08-18 17:00:00 35.3 15 Sudeste 36 Sudeste 0 -- -- 43
2019-08-18 16:00:00 36.5 8 Nordeste 34 Este 0 -- -- 30
2019-08-18 15:00:00 36 18 Sudeste 32 Sudeste 0 -- -- 34
2019-08-18 14:00:00 35.5 15 Sudeste 27 Este 0 -- -- 33
2019-08-18 13:00:00 35.2 12 Sudeste 21 Sudeste 0 -- -- 31
2019-08-18 12:00:00 33.8 4 Sudeste 12 Sudeste 0 -- -- 33
2019-08-18 11:00:00 30 6 Sudoeste 12 Sudoeste 0 -- -- 40
2019-08-18 10:00:00 25.7 3 Sudeste 6 Este 0 -- -- 56
2019-08-18 09:00:00 21.5 5 Oeste 9 Oeste 0 -- -- 71
2019-08-18 08:00:00 18.6 3 Oeste 6 Oeste 0 -- -- 84
2019-08-18 07:00:00 18.5 0 Calma 6 Norte 0 -- -- 87
2019-08-18 06:00:00 19.1 3 Norte 5 Noroeste 0 -- -- 85
2019-08-18 05:00:00 19.6 0 Calma 6 Oeste 0 -- -- 84
2019-08-18 04:00:00 19.7 3 Nordeste 8 Este 0 -- -- 83
2019-08-18 03:00:00 20.6 2 Noroeste 5 Oeste 0 -- -- 84
2019-08-18 02:00:00 21.3 0 Calma 3 Nordeste 0 -- -- 80
2019-08-18 01:00:00 21.8 3 Norte 5 Oeste 0 -- -- 80
2019-08-18 00:00:00 22.9 3 Oeste 5 Oeste 0 -- -- 80
2019-08-17 23:00:00 23.6 2 Este 6 Este 0 -- -- 77
2019-08-17 22:00:00 24.3 2 Este 14 Sudeste 0 -- -- 74
2019-08-17 21:00:00 25.6 11 Sudeste 28 Sudeste 0 -- -- 67
2019-08-17 20:00:00 28.2 13 Sudeste 26 Este 0 -- -- 61
2019-08-17 19:00:00 30.3 13 Sudeste 30 Sudeste 0 -- -- 55
2019-08-17 18:00:00 31.7 17 Sudeste 36 Sudeste 0 -- -- 52
2019-08-17 17:00:00 33.2 16 Sudeste 37 Sudeste 0 -- -- 49
2019-08-17 16:00:00 33.5 21 Sudeste 36 Sudeste 0 -- -- 46
2019-08-17 15:00:00 33.5 19 Sudeste 32 Sudeste 0 -- -- 43
2019-08-17 14:00:00 32.8 16 Sudeste 29 Sudeste 0 -- -- 43
2019-08-17 13:00:00 32.2 14 Sudeste 25 Sudeste 0 -- -- 44
2019-08-17 12:00:00 30.5 8 Sudeste 14 Sudeste 0 -- -- 47
2019-08-17 11:00:00 27.9 4 Sudeste 7 Sur 0 -- -- 54
2019-08-17 10:00:00 24.7 0 Calma 5 Este 0 -- -- 64
2019-08-17 09:00:00 21.4 0 Calma 6 Oeste 0 -- -- 76
2019-08-17 08:00:00 19 2 Noroeste 5 Noroeste 0 -- -- 86
2019-08-17 07:00:00 18.7 3 Norte 9 Noroeste 0 -- -- 86
2019-08-17 06:00:00 19.1 5 Noroeste 13 Oeste 0 -- -- 87
2019-08-17 05:00:00 19.1 0 Calma 4 Norte 0 -- -- 90
2019-08-17 04:00:00 19.5 2 Norte 6 Norte 0 -- -- 89
2019-08-17 03:00:00 19.7 0 Calma 6 Nordeste 0 -- -- 88
2019-08-17 02:00:00 20.5 2 Nordeste 5 Norte 0 -- -- 87
2019-08-17 01:00:00 21.2 0 Calma 4 Norte 0 -- -- 86
2019-08-17 00:00:00 21.7 0 Calma 8 Este 0 -- -- 86
2019-08-16 23:00:00 22.3 6 Sudeste 13 Sudeste 0 -- -- 83
2019-08-16 22:00:00 23.6 7 Sudeste 17 Sudeste 0 -- -- 77
2019-08-16 21:00:00 24.4 13 Sudeste 23 Sudeste 0 -- -- 74
2019-08-16 20:00:00 26.9 13 Sudeste 30 Sudeste 0 -- -- 66
2019-08-16 19:00:00 28.2 19 Sudeste 36 Sudeste 0 -- -- 62
2019-08-16 18:00:00 29.4 19 Sudeste 37 Este 0 -- -- 59
2019-08-16 17:00:00 30.4 17 Sudeste 32 Sudeste 0 -- -- 56
2019-08-16 16:00:00 31.1 17 Sudeste 32 Sudeste 0 -- -- 52
2019-08-16 15:00:00 31.4 15 Sudeste 26 Sudeste 0 -- -- 48
2019-08-16 14:00:00 30.6 14 Sudeste 24 Sudeste 0 -- -- 48
2019-08-16 13:00:00 29.3 9 Sudeste 21 Sudeste 0 -- -- 50
2019-08-16 12:00:00 27.8 7 Sur 15 Sur 0 -- -- 52
2019-08-16 11:00:00 24.9 7 Sur 13 Sudeste 0 -- -- 62
2019-08-16 10:00:00 22.8 3 Oeste 6 Sudoeste 0 -- -- 67
2019-08-16 09:00:00 20.2 0 Calma 4 Sudoeste 0 -- -- 79
2019-08-16 08:00:00 17.8 0 Calma 4 Nordeste 0 -- -- 88
2019-08-16 07:00:00 17.4 0 Calma 4 Sudoeste 0 -- -- 88
2019-08-16 06:00:00 18 0 Calma 4 Norte 0 -- -- 87
2019-08-16 05:00:00 18.6 0 Calma 4 Nordeste 0 -- -- 86
2019-08-16 04:00:00 18.9 0 Calma 3 Este 0 -- -- 85
2019-08-16 03:00:00 19.7 2 Norte 5 Nordeste 0 -- -- 82
2019-08-16 02:00:00 20.1 2 Norte 5 Norte 0 -- -- 81
2019-08-16 01:00:00 20.9 3 Nordeste 6 Nordeste 0 -- -- 77
2019-08-16 00:00:00 21.8 3 Nordeste 8 Este 0 -- -- 75
2019-08-15 23:00:00 22.4 6 Este 13 Este 0 -- -- 74
2019-08-15 22:00:00 23.2 10 Sudeste 18 Sudeste 0 -- -- 71
2019-08-15 21:00:00 24.1 11 Sudeste 24 Este 0 -- -- 68
2019-08-15 20:00:00 26.1 13 Este 31 Sudeste 0 -- -- 63
2019-08-15 19:00:00 28.1 17 Sudeste 36 Este 0 -- -- 56
2019-08-15 18:00:00 28.8 20 Sudeste 39 Sudeste 0 -- -- 59
2019-08-15 17:00:00 30 22 Sudeste 40 Sudeste 0 -- -- 56
2019-08-15 16:00:00 31.6 19 Sudeste 36 Sudeste 0 -- -- 50
2019-08-15 15:00:00 32.8 16 Sudeste 29 Sudeste 0 -- -- 38
2019-08-15 14:00:00 32 14 Sudeste 26 Este 0 -- -- 36
2019-08-15 13:00:00 31.1 12 Sudeste 25 Sudeste 0 -- -- 35
2019-08-15 12:00:00 30.2 9 Sudeste 18 Sudeste 0 -- -- 36
2019-08-15 11:00:00 28.5 4 Sudeste 9 Sur 0 -- -- 37
2019-08-15 10:00:00 24.9 3 Sudoeste 7 Oeste 0 -- -- 45
2019-08-15 09:00:00 21.2 4 Oeste 10 Oeste 0 -- -- 54
2019-08-15 08:00:00 18.4 3 Nordeste 9 Noroeste 0 -- -- 64
2019-08-15 07:00:00 17.8 4 Norte 8 Sudoeste 0 -- -- 68
2019-08-15 06:00:00 18 3 Norte 6 Norte 0 -- -- 69
2019-08-15 05:00:00 18.6 0 Calma 6 Noroeste 0 -- -- 74
2019-08-15 04:00:00 19 3 Norte 5 Norte 0 -- -- 78
2019-08-15 03:00:00 19.7 2 Noroeste 5 Norte 0 -- -- 80
2019-08-15 02:00:00 20 0 Calma 5 Oeste 0 -- -- 81
2019-08-15 01:00:00 21 2 Este 5 Norte 0 -- -- 78
2019-08-15 00:00:00 21.8 2 Norte 4 Noroeste 0 -- -- 76
2019-08-14 23:00:00 22.6 0 Calma 9 Sudeste 0 -- -- 75
2019-08-14 22:00:00 23.5 5 Sudeste 21 Este 0 -- -- 71
2019-08-14 21:00:00 25 12 Este 26 Sudeste 0 -- -- 64
2019-08-14 20:00:00 27.5 13 Sudeste 30 Sudeste 0 -- -- 55
2019-08-14 19:00:00 28.9 17 Sudeste 31 Sudeste 0 -- -- 53
2019-08-14 18:00:00 29.9 19 Sudeste 36 Sudeste 0 -- -- 50
2019-08-14 17:00:00 30.9 19 Sudeste 39 Sudeste 0 -- -- 47
2019-08-14 16:00:00 32.7 18 Sudeste 34 Sudeste 0 -- -- 40
2019-08-14 15:00:00 33 12 Sur 24 Sudeste 0 -- -- 30
2019-08-14 14:00:00 31.6 10 Sudoeste 19 Sudeste 0 -- -- 30
2019-08-14 13:00:00 30.9 9 Sur 17 Sudoeste 0 -- -- 34
2019-08-14 12:00:00 29 4 Sudoeste 13 Sudoeste 0 -- -- 46
2019-08-14 11:00:00 26.1 5 Oeste 16 Oeste 0 -- -- 55
2019-08-14 10:00:00 23.6 8 Oeste 18 Noroeste 0 -- -- 65
2019-08-14 09:00:00 20.7 3 Sudeste 5 Sudeste 0 -- -- 76
2019-08-14 08:00:00 17.6 5 Norte 9 Nordeste 0 -- -- 89
2019-08-14 07:00:00 17.4 2 Norte 6 Nordeste 0 -- -- 92
2019-08-14 06:00:00 17.8 3 Norte 5 Nordeste 0 -- -- 92
2019-08-14 05:00:00 18.4 0 Calma 9 Este 0 -- -- 90
2019-08-14 04:00:00 19.4 3 Este 10 Noroeste 0 -- -- 86
2019-08-14 03:00:00 19.8 2 Noroeste 5 Nordeste 0 -- -- 89
2019-08-14 02:00:00 20.1 3 Nordeste 8 Sudeste 0 -- -- 87
2019-08-14 01:00:00 20.6 3 Sudeste 9 Sur 0 -- -- 83
2019-08-14 00:00:00 21.4 5 Sur 12 Este 0 -- -- 78
2019-08-13 23:00:00 20.9 8 Este 15 Sudeste 0 -- -- 80
2019-08-13 22:00:00 21.3 9 Este 20 Sudeste 0 -- -- 78
2019-08-13 21:00:00 22 11 Sudeste 33 Este 0 -- -- 74
2019-08-13 20:00:00 23.9 17 Sudeste 35 Sudeste 0 -- -- 65
2019-08-13 19:00:00 25.6 14 Sudeste 31 Sudeste 0 -- -- 59
2019-08-13 18:00:00 27.2 14 Sudeste 27 Sudeste 0 -- -- 53
2019-08-13 17:00:00 26.3 14 Sudeste 27 Sudeste 0 -- -- 54
2019-08-13 16:00:00 25.8 12 Sudeste 29 Este 0 -- -- 55
2019-08-13 15:00:00 25.6 17 Sudeste 29 Sudeste 0 -- -- 54
2019-08-13 14:00:00 24.5 9 Este 26 Sudeste 0 -- -- 53
2019-08-13 13:00:00 23.2 11 Sudeste 27 Sudeste 0 -- -- 55
2019-08-13 12:00:00 22.6 12 Sudeste 22 Sudeste 0 -- -- 57
2019-08-13 11:00:00 22.6 5 Este 11 Este 0 -- -- 56
2019-08-13 10:00:00 20.9 3 Oeste 7 Sudoeste 0 -- -- 57
2019-08-13 09:00:00 19.9 0 Calma 9 Oeste 0 -- -- 57
2019-08-13 08:00:00 19.7 5 Sudoeste 10 Sudoeste 0 -- -- 55
2019-08-13 07:00:00 19.5 6 Oeste 13 Sudoeste 0 -- -- 57
2019-08-13 06:00:00 19.7 5 Sudoeste 9 Oeste 0 -- -- 56
2019-08-13 05:00:00 19.6 3 Sudoeste 10 Noroeste 0 -- -- 62
2019-08-13 04:00:00 20 2 Noroeste 6 Oeste 0 -- -- 85
2019-08-13 03:00:00 20.2 2 Sudeste 12 Sudeste 0 -- -- 85
2019-08-13 02:00:00 20.4 7 Sudeste 16 Sudeste 0 -- -- 85
2019-08-13 01:00:00 20.7 9 Sudeste 20 Sudeste 0 -- -- 86
2019-08-13 00:00:00 20.9 11 Sudeste 22 Sudeste 0 -- -- 86
2019-08-12 23:00:00 21.5 9 Sudeste 20 Sudeste 0 -- -- 82
2019-08-12 22:00:00 21.9 13 Sudeste 27 Sudeste 0 -- -- 79
2019-08-12 21:00:00 23 16 Sudeste 30 Sudeste 0 -- -- 72
2019-08-12 20:00:00 24.7 18 Sudeste 35 Sudeste 0 -- -- 64
2019-08-12 19:00:00 26 20 Sudeste 40 Sudeste 0 -- -- 59
2019-08-12 18:00:00 27.2 22 Sudeste 35 Sudeste 0 -- -- 54
2019-08-12 17:00:00 28.6 17 Sudeste 37 Sudeste 0 -- -- 45
2019-08-12 16:00:00 28.1 18 Sudeste 39 Este 0 -- -- 45
2019-08-12 15:00:00 29.3 15 Sudeste 31 Este 0 -- -- 42
2019-08-12 14:00:00 30.3 9 Sudeste 23 Sudeste 0 -- -- 40
2019-08-12 13:00:00 29.7 8 Sur 15 Sur 0 -- -- 33
2019-08-12 12:00:00 27.2 5 Sudoeste 12 Sudoeste 0 -- -- 39
2019-08-12 11:00:00 25 6 Sudoeste 17 Oeste 0 -- -- 45
2019-08-12 10:00:00 23.9 8 Oeste 15 Oeste 0 -- -- 46
2019-08-12 09:00:00 21.7 3 Noroeste 18 Oeste 0 -- -- 54
2019-08-12 08:00:00 19.6 0 Calma 13 Noroeste 0 -- -- 65
2019-08-12 07:00:00 19 0 Calma 7 Nordeste 0 -- -- 67
2019-08-12 06:00:00 19.9 3 Este 13 Oeste 0 -- -- 68
2019-08-12 05:00:00 20.4 2 Noroeste 6 Este 0 -- -- 72
2019-08-12 04:00:00 20.7 4 Norte 7 Nordeste 0 -- -- 77
2019-08-12 03:00:00 20.8 3 Norte 7 Nordeste 0 -- -- 80
2019-08-12 02:00:00 21.9 4 Nordeste 7 Nordeste 0 -- -- 82
2019-08-12 01:00:00 22.6 3 Norte 6 Norte 0 -- -- 83
2019-08-12 00:00:00 23.3 2 Sudeste 9 Sudeste 0 -- -- 83
2019-08-11 23:00:00 24.5 6 Sudeste 16 Sudeste 0 -- -- 77
2019-08-11 22:00:00 25.2 9 Sudeste 18 Sudeste 0 -- -- 75
2019-08-11 21:00:00 26.8 11 Sudeste 26 Sudeste 0 -- -- 68
2019-08-11 20:00:00 32.9 12 Sudoeste 32 Oeste 0 -- -- 19
2019-08-11 19:00:00 34.1 10 Sudoeste 30 Sudoeste 0 -- -- 18
2019-08-11 18:00:00 34.4 19 Oeste 33 Sudoeste 0 -- -- 18
2019-08-11 17:00:00 35.1 -- -- -- -- 0 -- -- 19
2019-08-11 16:00:00 33.9 10 Sudoeste 33 Sudoeste 0 -- -- 21
2019-08-11 15:00:00 34.8 14 Oeste 33 Sur 0 -- -- 21
2019-08-11 14:00:00 33.5 17 Oeste 39 Oeste 0 -- -- 18
2019-08-11 13:00:00 32.7 12 Oeste 29 Sudoeste 0 -- -- 30
2019-08-11 12:00:00 30.9 6 Este 13 Este 0 -- -- 48
2019-08-11 11:00:00 28.5 3 Sudeste 8 Sur 0 -- -- 59
2019-08-11 10:00:00 25.8 4 Sur 9 Sudeste 0 -- -- 69
2019-08-11 09:00:00 23.7 0 Calma 5 Norte 0 -- -- 81
2019-08-11 08:00:00 22 4 Nordeste 8 Nordeste 0 -- -- 82
2019-08-11 07:00:00 22 0 Calma 4 Este 0 -- -- 88
2019-08-11 06:00:00 22.2 3 Oeste 9 Este 0 -- -- 85
2019-08-11 05:00:00 22.3 4 Este 9 Nordeste 0 -- -- 83
2019-08-11 04:00:00 22 3 Nordeste 7 Nordeste 0 -- -- 75
2019-08-11 03:00:00 21.7 0 Calma 4 Nordeste 0 -- -- 77
2019-08-11 02:00:00 22.5 3 Nordeste 5 Nordeste 0 -- -- 80
2019-08-11 01:00:00 23.3 0 Calma 5 Nordeste 0 -- -- 82
2019-08-11 00:00:00 23.9 2 Este 6 Sudeste 0 -- -- 83
2019-08-10 23:00:00 24.6 6 Sudeste 15 Sudeste 0 -- -- 79
2019-08-10 22:00:00 25.5 9 Sudeste 21 Sudeste 0 -- -- 72
2019-08-10 21:00:00 26.6 14 Sudeste 30 Sudeste 0 -- -- 66
2019-08-10 20:00:00 29.2 13 Sudeste 31 Sudeste 0 -- -- 59
2019-08-10 19:00:00 30.8 17 Sudeste 32 Este 0 -- -- 51
2019-08-10 18:00:00 31.8 18 Sudeste 34 Este 0 -- -- 49
2019-08-10 17:00:00 32.4 20 Sudeste 37 Sudeste 0 -- -- 47
2019-08-10 16:00:00 33.3 19 Sudeste 39 Este 0 -- -- 43
2019-08-10 15:00:00 33.2 18 Sudeste 33 Sudeste 0 -- -- 45
2019-08-10 14:00:00 32.8 28 Sudeste 42 Sudeste 0 -- -- 46
2019-08-10 13:00:00 34.2 9 Sur 21 Oeste 0 -- -- 33
2019-08-10 12:00:00 33.4 4 Sudoeste 18 Noroeste 0 -- -- 36
2019-08-10 11:00:00 30.7 8 Oeste 22 Oeste 0 -- -- 43
2019-08-10 10:00:00 29.3 8 Oeste 15 Oeste 0 -- -- 45
2019-08-10 09:00:00 26.3 8 Oeste 17 Oeste 0 -- -- 50
2019-08-10 08:00:00 23.2 3 Oeste 10 Oeste 0 -- -- 56
2019-08-10 07:00:00 23.4 5 Sudoeste 8 Sudoeste 0 -- -- 54
2019-08-10 06:00:00 23.9 5 Noroeste 14 Noroeste 0 -- -- 52
2019-08-10 05:00:00 25.3 8 Noroeste 14 Noroeste 0 -- -- 49
2019-08-10 04:00:00 25.6 6 Oeste 15 Oeste 0 -- -- 47
2019-08-10 03:00:00 27.6 6 Noroeste 14 Noroeste 0 -- -- 42
2019-08-10 02:00:00 28.4 10 Noroeste 15 Noroeste 0 -- -- 40
2019-08-10 01:00:00 29.9 12 Noroeste 20 Oeste 0 -- -- 36
2019-08-10 00:00:00 30 9 Noroeste 15 Noroeste 0 -- -- 35
2019-08-09 23:00:00 30.9 8 Noroeste 17 Oeste 0 -- -- 34
2019-08-09 22:00:00 32.4 9 Noroeste 30 Oeste 0 -- -- 31
2019-08-09 21:00:00 34 14 Oeste 36 Sudoeste 0 -- -- 28
2019-08-09 20:00:00 36.2 17 Oeste 37 Oeste 0 -- -- 26
2019-08-09 19:00:00 37.4 15 Oeste 35 Oeste 0 -- -- 25
2019-08-09 18:00:00 38.2 14 Oeste 42 Sudoeste 0 -- -- 23
2019-08-09 17:00:00 37.9 17 Oeste 38 Oeste 0 -- -- 22
2019-08-09 16:00:00 37.3 17 Oeste 43 Sudoeste 0 -- -- 23
2019-08-09 15:00:00 36.5 20 Sudoeste 37 Sudoeste 0 -- -- 24
2019-08-09 14:00:00 36.1 17 Oeste 37 Sudoeste 0 -- -- 24
2019-08-09 13:00:00 35.1 12 Oeste 39 Sudoeste 0 -- -- 26
2019-08-09 12:00:00 34.1 12 Oeste 33 Noroeste 0 -- -- 30
2019-08-09 11:00:00 32.2 12 Oeste 26 Sudoeste 0 -- -- 32
2019-08-09 10:00:00 29 9 Oeste 16 Sudoeste 0 -- -- 38
2019-08-09 09:00:00 25.4 10 Oeste 22 Oeste 0 -- -- 43
2019-08-09 08:00:00 22.1 4 Oeste 16 Oeste 0 -- -- 52
2019-08-09 07:00:00 21.7 9 Oeste 14 Oeste 0 -- -- 52
2019-08-09 06:00:00 21.3 4 Oeste 10 Oeste 0 -- -- 57
2019-08-09 05:00:00 21.5 4 Oeste 7 Oeste 0 -- -- 57
2019-08-09 04:00:00 22.3 0 Calma 6 Oeste 0 -- -- 57
2019-08-09 03:00:00 22.6 2 Sur 8 Noroeste 0 -- -- 58
2019-08-09 02:00:00 23.1 3 Nordeste 8 Nordeste 0 -- -- 55
2019-08-09 01:00:00 23.1 0 Calma 7 Noroeste 0 -- -- 58
2019-08-09 00:00:00 24.4 4 Norte 8 Norte 0 -- -- 55
2019-08-08 23:00:00 25.7 5 Nordeste 8 Nordeste 0 -- -- 51
2019-08-08 22:00:00 26.9 2 Este 13 Sudeste 0 -- -- 50
2019-08-08 21:00:00 29 8 Sudeste 24 Sudeste 0 -- -- 46
2019-08-08 20:00:00 31.6 12 Sudeste 28 Sudeste 0 -- -- 44
2019-08-08 19:00:00 34.2 14 Sudeste 30 Sudeste 0 -- -- 38
2019-08-08 18:00:00 36.6 10 Sur 30 Sudoeste 0 -- -- 30
2019-08-08 17:00:00 37.9 10 Oeste 33 Sudoeste 0 -- -- 24
2019-08-08 16:00:00 37 13 Sudoeste 35 Sudoeste 0 -- -- 24
2019-08-08 15:00:00 36.5 6 Sur 30 Sudoeste 0 -- -- 25
2019-08-08 14:00:00 35.7 15 Sudoeste 26 Sudoeste 0 -- -- 23
2019-08-08 13:00:00 34.2 8 Sudeste 24 Sudoeste 0 -- -- 26
2019-08-08 12:00:00 32 15 Sudoeste 26 Sudoeste 0 -- -- 27
2019-08-08 11:00:00 30.1 9 Oeste 20 Oeste 0 -- -- 32
2019-08-08 10:00:00 27.5 9 Oeste 16 Oeste 0 -- -- 39
2019-08-08 09:00:00 25 7 Noroeste 13 Oeste 0 -- -- 44
2019-08-08 08:00:00 22.1 0 Calma 24 Noroeste 0 -- -- 52
2019-08-08 07:00:00 22.5 12 Noroeste 23 Noroeste 0 -- -- 50
2019-08-08 06:00:00 23 15 Noroeste 25 Noroeste 0 -- -- 53
2019-08-08 05:00:00 21.4 5 Sudeste 13 Oeste 0 -- -- 77
2019-08-08 04:00:00 20.9 2 Nordeste 8 Nordeste 0 -- -- 81
2019-08-08 03:00:00 22 3 Nordeste 6 Nordeste 0 -- -- 87
2019-08-08 02:00:00 22.9 0 Calma 5 Norte 0 -- -- 87
2019-08-08 01:00:00 23.6 0 Calma 9 Sudeste 0 -- -- 85
2019-08-08 00:00:00 24.1 6 Sudeste 12 Sudeste 0 -- -- 83
2019-08-07 23:00:00 24.9 0 Calma 11 Sudeste 0 -- -- 79
2019-08-07 22:00:00 25.5 6 Sudeste 15 Sudeste 0 -- -- 76
2019-08-07 21:00:00 26 7 Sudeste 18 Sudeste 0 -- -- 73
2019-08-07 20:00:00 27.5 13 Sudeste 26 Sudeste 0 -- -- 67
2019-08-07 19:00:00 30.4 17 Sudeste 28 Sudeste 0 -- -- 52
2019-08-07 18:00:00 36.2 15 Oeste 29 Oeste 0 -- -- 19
2019-08-07 17:00:00 35.9 15 Oeste 29 Oeste 0 -- -- 17
2019-08-07 16:00:00 35 15 Oeste 33 Oeste 0 -- -- 16
2019-08-07 15:00:00 36.1 12 Oeste 29 Oeste 0 -- -- 18
2019-08-07 14:00:00 34 5 Sudoeste 21 Sudoeste 0 -- -- 22
2019-08-07 13:00:00 33.1 5 Norte 17 Oeste 0 -- -- 27
2019-08-07 12:00:00 30.3 10 Noroeste 18 Oeste 0 -- -- 31
2019-08-07 11:00:00 28.5 6 Sudoeste 12 Oeste 0 -- -- 35
2019-08-07 10:00:00 25.8 8 Sudoeste 17 Oeste 0 -- -- 39
2019-08-07 09:00:00 24.8 10 Oeste 19 Noroeste 0 -- -- 42
2019-08-07 08:00:00 22.7 8 Oeste 21 Noroeste 0 -- -- 50
2019-08-07 07:00:00 21.5 4 Oeste 12 Sudoeste 0 -- -- 58
2019-08-07 06:00:00 22.5 7 Oeste 16 Oeste 0 -- -- 58
2019-08-07 05:00:00 20.9 6 Noroeste 10 Oeste 0 -- -- 63
2019-08-07 04:00:00 20.1 0 Calma 8 Oeste 0 -- -- 78
2019-08-07 03:00:00 20.9 0 Calma 6 Norte 0 -- -- 81
2019-08-07 02:00:00 21.7 0 Calma 4 Noroeste 0 -- -- 84
2019-08-07 01:00:00 22.5 0 Calma 6 Nordeste 0 -- -- 84
2019-08-07 00:00:00 23.6 0 Calma 4 Norte 0 -- -- 83
2019-08-06 23:00:00 24.5 0 Calma 8 Sudeste 0 -- -- 81
2019-08-06 22:00:00 25.4 5 Sudeste 15 Sudeste 0 -- -- 78
2019-08-06 21:00:00 26.8 10 Sudeste 26 Sudeste 0 -- -- 72
2019-08-06 20:00:00 30.2 13 Sudeste 30 Sudeste 0 -- -- 61
2019-08-06 19:00:00 31.6 13 Sudeste 31 Sudeste 0 -- -- 55
2019-08-06 18:00:00 33.3 15 Sudeste 33 Sudeste 0 -- -- 48
2019-08-06 17:00:00 34.4 18 Sudeste 35 Sudeste 0 -- -- 44
2019-08-06 16:00:00 34.2 16 Sudeste 32 Sudeste 0 -- -- 46
2019-08-06 15:00:00 33.8 18 Sudeste 32 Sudeste 0 -- -- 47
2019-08-06 14:00:00 33.8 15 Sudeste 28 Sudeste 0 -- -- 46
2019-08-06 13:00:00 32.4 14 Sudeste 27 Este 0 -- -- 49
2019-08-06 12:00:00 32.2 9 Sudeste 17 Sudeste 0 -- -- 47
2019-08-06 11:00:00 29.3 6 Sudeste 12 Sudeste 0 -- -- 56
2019-08-06 10:00:00 26.7 5 Sudeste 12 Sudoeste 0 -- -- 65
2019-08-06 09:00:00 24.6 7 Oeste 20 Noroeste 0 -- -- 70
2019-08-06 08:00:00 21.5 9 Noroeste 17 Noroeste 0 -- -- 84
2019-08-06 07:00:00 21 4 Noroeste 15 Oeste 0 -- -- 87
2019-08-06 06:00:00 22 5 Noroeste 9 Noroeste 0 -- -- 86
2019-08-06 05:00:00 22.5 4 Noroeste 6 Noroeste 0 -- -- 84
2019-08-06 04:00:00 22.7 0 Calma 5 Este 0 -- -- 85
2019-08-06 03:00:00 22.7 2 Sudoeste 6 Oeste 0 -- -- 87
2019-08-06 02:00:00 22.8 3 Sudeste 8 Este 0 -- -- 83
2019-08-06 01:00:00 22.3 0 Calma 5 Este 0 -- -- 86
2019-08-06 00:00:00 23 0 Calma 5 Sudeste 0 -- -- 84
2019-08-05 23:00:00 23.2 4 Este 9 Sudeste 0 -- -- 82
2019-08-05 22:00:00 24.1 5 Sudeste 19 Sudeste 0 -- -- 78
2019-08-05 21:00:00 25.3 12 Sudeste 33 Sudeste 0 -- -- 72
2019-08-05 20:00:00 27.6 20 Sudeste 34 Sudeste 0 -- -- 63
2019-08-05 19:00:00 30.7 17 Sudeste 34 Sudeste 0 -- -- 51
2019-08-05 18:00:00 32.2 19 Sudeste 37 Sudeste 0 -- -- 49
2019-08-05 17:00:00 34.3 15 Sudeste 30 Sudeste 0 -- -- 38
2019-08-05 16:00:00 33.5 15 Sudeste 30 Sudeste 0 -- -- 40
2019-08-05 15:00:00 32.5 14 Sudeste 28 Sudeste 0 -- -- 42
2019-08-05 14:00:00 31.1 14 Sudeste 27 Sudeste 0 -- -- 45
2019-08-05 13:00:00 29.4 14 Sudeste 27 Sudeste 0 -- -- 47
2019-08-05 12:00:00 -- 14 Sudeste 30 Sudeste 0 -- -- --
2019-08-05 11:00:00 27 12 Sudeste 24 Sudeste 0 -- -- 46
2019-08-05 10:00:00 25.2 7 Este 12 Este 0 -- -- 51
2019-08-05 09:00:00 22.4 3 Este 10 Noroeste 0 -- -- 60
2019-08-05 08:00:00 19.9 3 Noroeste 10 Noroeste 0 -- -- 67
2019-08-05 07:00:00 19.3 4 Noroeste 14 Oeste 0 -- -- 67
2019-08-05 06:00:00 19.7 6 Noroeste 10 Noroeste 0 -- -- 66
2019-08-05 05:00:00 19.2 0 Calma 5 Sudoeste 0 -- -- 68
2019-08-05 04:00:00 19.5 2 Nordeste 4 Nordeste 0 -- -- 69
2019-08-05 03:00:00 20.1 0 Calma 4 Sudoeste 0 -- -- 67
2019-08-05 02:00:00 20.9 0 Calma 6 Norte 0 -- -- 65
2019-08-05 01:00:00 21.8 4 Norte 8 Norte 0 -- -- 61
2019-08-05 00:00:00 22.5 4 Norte 6 Nordeste 0 -- -- 61
2019-08-04 23:00:00 23.1 3 Este 13 Sudeste 0 -- -- 70
2019-08-04 22:00:00 24.6 8 Sudeste 19 Sudeste 0 -- -- 67
2019-08-04 21:00:00 26.2 14 Sudeste 28 Sudeste 0 -- -- 62
2019-08-04 20:00:00 29.1 17 Sudeste 35 Sudeste 0 -- -- 51
2019-08-04 19:00:00 31.1 18 Sudeste 34 Sudeste 0 -- -- 46
2019-08-04 18:00:00 32.8 14 Sudeste 32 Sudeste 0 -- -- 41
2019-08-04 17:00:00 32.8 18 Sudeste 33 Sudeste 0 -- -- 45
2019-08-04 16:00:00 33.1 18 Sudeste 33 Sudeste 0 -- -- 45
2019-08-04 15:00:00 33.7 14 Sudeste 32 Sudeste 0 -- -- 39
2019-08-04 14:00:00 32.5 15 Sudeste 33 Sudeste 0 -- -- 37
2019-08-04 13:00:00 30.7 17 Sudeste 36 Este 0 -- -- 42
2019-08-04 12:00:00 30.3 9 Sudeste 17 Sudeste 0 -- -- 42
2019-08-04 11:00:00 28.3 5 Sudeste 12 Sudeste 0 -- -- 46
2019-08-04 10:00:00 25 6 Sudeste 10 Este 0 -- -- 55
2019-08-04 09:00:00 22.9 2 Sur 14 Oeste 0 -- -- 60
2019-08-04 08:00:00 20.1 4 Sudoeste 10 Oeste 0 -- -- 69
2019-08-04 07:00:00 19.5 4 Oeste 9 Sudoeste 0 -- -- 70
2019-08-04 06:00:00 19.3 2 Oeste 5 Oeste 0 -- -- 73
2019-08-04 05:00:00 19.5 3 Norte 10 Noroeste 0 -- -- 71
2019-08-04 04:00:00 19.7 0 Calma 5 Norte 0 -- -- 70
2019-08-04 03:00:00 20.1 0 Calma 4 Norte 0 -- -- 70
2019-08-04 02:00:00 20.8 0 Calma 6 Norte 0 -- -- 69
2019-08-04 01:00:00 21.6 2 Norte 5 Norte 0 -- -- 67
2019-08-04 00:00:00 22.3 2 Nordeste 6 Este 0 -- -- 66
2019-08-03 23:00:00 23.2 3 Sudeste 9 Sudeste 0 -- -- 64
2019-08-03 22:00:00 24.3 7 Sudeste 20 Sudeste 0 -- -- 61
2019-08-03 21:00:00 26 14 Sudeste 25 Sudeste 0 -- -- 58
2019-08-03 20:00:00 28.7 15 Sudeste 26 Sudeste 0 -- -- 52
2019-08-03 19:00:00 29.7 16 Sudeste 33 Sudeste 0 -- -- 50
2019-08-03 18:00:00 31 18 Sudeste 36 Sudeste 0 -- -- 47
2019-08-03 17:00:00 31.7 20 Sudeste 35 Sudeste 0 -- -- 45
2019-08-03 16:00:00 32.7 16 Sudeste 36 Sudeste 0 -- -- 43
2019-08-03 15:00:00 32.1 16 Sudeste 35 Sudeste 0 -- -- 43
2019-08-03 14:00:00 31.2 16 Sudeste 30 Sudeste 0 -- -- 43
2019-08-03 13:00:00 30.5 15 Sudeste 32 Sudeste 0 -- -- 42
2019-08-03 12:00:00 29 10 Sur 17 Sur 0 -- -- 42
2019-08-03 11:00:00 26.9 4 Sur 9 Sur 0 -- -- 44
2019-08-03 10:00:00 24.4 3 Sudeste 6 Sudoeste 0 -- -- 53
2019-08-03 09:00:00 20.8 3 Oeste 6 Oeste 0 -- -- 64
2019-08-03 08:00:00 18.5 0 Calma 7 Oeste 0 -- -- 77
2019-08-03 07:00:00 17 0 Calma 4 Norte 0 -- -- 81
2019-08-03 06:00:00 17.4 0 Calma 4 Sudoeste 0 -- -- 79
2019-08-03 05:00:00 17.7 0 Calma 6 Oeste 0 -- -- 78
2019-08-03 04:00:00 18.3 0 Calma 4 Nordeste 0 -- -- 76
2019-08-03 03:00:00 19.1 0 Calma 5 Norte 0 -- -- 73
2019-08-03 02:00:00 19.6 3 Nordeste 8 Este 0 -- -- 70
2019-08-03 01:00:00 20.4 4 Este 8 Este 0 -- -- 66
2019-08-03 00:00:00 21.2 2 Norte 6 Nordeste 0 -- -- 65
2019-08-02 23:00:00 22.4 0 Calma 8 Sudeste 0 -- -- 62
2019-08-02 22:00:00 23.4 7 Sudeste 17 Sudeste 0 -- -- 58
2019-08-02 21:00:00 25.1 12 Sudeste 27 Sur 0 -- -- 50
2019-08-02 20:00:00 27.5 18 Sudeste 37 Sudeste 0 -- -- 45
2019-08-02 19:00:00 29.5 15 Sudeste 33 Sudeste 0 -- -- 40
2019-08-02 18:00:00 30.1 19 Sudeste 33 Este 0 -- -- 40
2019-08-02 17:00:00 30 20 Sudeste 36 Sudeste 0 -- -- 43
2019-08-02 16:00:00 30.5 21 Sudeste 37 Sudeste 0 -- -- 40
2019-08-02 15:00:00 30.8 20 Sudeste 39 Sudeste 0 -- -- 47
2019-08-02 14:00:00 30.6 17 Sudeste 31 Este 0 -- -- 49
2019-08-02 13:00:00 29.8 14 Sudeste 25 Sudeste 0 -- -- 52
2019-08-02 12:00:00 28.8 12 Sudeste 23 Sudeste 0 -- -- 55
2019-08-02 11:00:00 26.9 2 Sudoeste 9 Sur 0 -- -- 60
2019-08-02 10:00:00 24.2 3 Sur 8 Sudoeste 0 -- -- 68
2019-08-02 09:00:00 21.2 3 Sudoeste 6 Sudoeste 0 -- -- 78
2019-08-02 08:00:00 18.7 3 Oeste 6 Oeste 0 -- -- 88
2019-08-02 07:00:00 18.2 2 Oeste 5 Oeste 0 -- -- 90
2019-08-02 06:00:00 18.5 0 Calma 6 Norte 0 -- -- 89
2019-08-02 05:00:00 18.7 3 Norte 5 Sudoeste 0 -- -- 88
2019-08-02 04:00:00 19.1 0 Calma 4 Oeste 0 -- -- 87
2019-08-02 03:00:00 19.6 0 Calma 5 Norte 0 -- -- 86
2019-08-02 02:00:00 20 0 Calma 4 Norte 0 -- -- 84
2019-08-02 01:00:00 20.7 0 Calma 5 Sudeste 0 -- -- 83
2019-08-02 00:00:00 21.4 0 Calma 5 Sudeste 0 -- -- 80
2019-08-01 23:00:00 22.3 3 Sudeste 15 Este 0 -- -- 77
2019-08-01 22:00:00 23.3 11 Sudeste 23 Sudeste 0 -- -- 74
2019-08-01 21:00:00 24.9 15 Sudeste 29 Sudeste 0 -- -- 68
2019-08-01 20:00:00 27.2 15 Sudeste 29 Sudeste 0 -- -- 60
2019-08-01 19:00:00 28.1 18 Sudeste 30 Sudeste 0 -- -- 59
2019-08-01 18:00:00 29.6 14 Sudeste 31 Sur 0 -- -- 54
2019-08-01 17:00:00 28.5 19 Sudeste 37 Sudeste 0 -- -- 58
2019-08-01 16:00:00 30.4 21 Sudeste 35 Sudeste 0 -- -- 50
2019-08-01 15:00:00 30.8 19 Sudeste 32 Sudeste 0 -- -- 46
2019-08-01 14:00:00 31 11 Sudeste 19 Este 0 -- -- 43
2019-08-01 13:00:00 29.2 7 Oeste 14 Sudoeste 0 -- -- 45
2019-08-01 12:00:00 28.2 3 Este 13 Sudeste 0 -- -- 47
2019-08-01 11:00:00 25.8 4 Este 10 Sur 0 -- -- 54
2019-08-01 10:00:00 22.9 3 Sudoeste 8 Sudoeste 0 -- -- 65
2019-08-01 09:00:00 21.2 3 Este 9 Nordeste 0 -- -- 71
2019-08-01 08:00:00 18.1 3 Nordeste 7 Este 0 -- -- 88
2019-08-01 07:00:00 17.9 4 Nordeste 9 Este 0 -- -- 89
2019-08-01 06:00:00 19.1 0 Calma 4 Sudeste 0 -- -- 92
2019-08-01 05:00:00 19.1 0 Calma 5 Sudeste 0 -- -- 92
2019-08-01 04:00:00 19.7 5 Sudeste 14 Este 0 -- -- 89
2019-08-01 03:00:00 20.1 6 Este 10 Este 0 -- -- 88
2019-08-01 02:00:00 20.3 4 Sudeste 11 Sudeste 0 -- -- 85
2019-08-01 01:00:00 20.8 6 Este 14 Este 0 -- -- 82
2019-08-01 00:00:00 21.1 9 Este 18 Este 0 -- -- 77
2019-07-31 23:00:00 21.3 10 Este 22 Este 0 -- -- 74
2019-07-31 22:00:00 21.9 13 Sudeste 26 Sudeste 0 -- -- 74
2019-07-31 21:00:00 23 12 Este 23 Este 0 -- -- 70
2019-07-31 20:00:00 25 11 Sudeste 26 Sudeste 0 -- -- 63
2019-07-31 19:00:00 25.4 10 Sudeste 27 Sudeste 0 -- -- 64
2019-07-31 18:00:00 23.6 15 Sudeste 26 Sudeste 0 -- -- 73
2019-07-31 17:00:00 23.4 11 Sudeste 24 Sudeste 0 -- -- 73
2019-07-31 16:00:00 22.5 10 Sudeste 30 Sudeste 0 -- -- 80
2019-07-31 15:00:00 23.1 17 Sudeste 34 Sudeste 0 -- -- 75
2019-07-31 14:00:00 25.5 22 Sudeste 39 Sudeste 0 -- -- 63
2019-07-31 13:00:00 26.8 19 Sudeste 37 Sudeste 0 -- -- 53
2019-07-31 12:00:00 25.9 19 Sudeste 35 Sudeste 0 -- -- 53
2019-07-31 11:00:00 24.3 17 Sudeste 32 Este 0 -- -- 63
2019-07-31 10:00:00 23.3 13 Sudeste 30 Sudeste 0 -- -- 62
2019-07-31 09:00:00 22 5 Este 10 Sudeste 0 -- -- 72
2019-07-31 08:00:00 20.6 0 Calma 6 Norte 0 -- -- 79
2019-07-31 07:00:00 19.7 3 Nordeste 6 Nordeste 0 -- -- 84
2019-07-31 06:00:00 19.3 2 Sudeste 7 Nordeste 0 -- -- 87
2019-07-31 05:00:00 18.7 6 Nordeste 9 Este 0 -- -- 87
2019-07-31 04:00:00 18.8 4 Nordeste 8 Nordeste 0 -- -- 85
2019-07-31 03:00:00 19.5 3 Nordeste 5 Nordeste 0 -- -- 87
2019-07-31 02:00:00 20.4 0 Calma 3 Sudeste 0 -- -- 88
2019-07-31 01:00:00 20.6 0 Calma 6 Sudeste 0 -- -- 88
2019-07-31 00:00:00 21.1 4 Sudeste 17 Sudeste 0 -- -- 86
2019-07-30 23:00:00 21.8 10 Sudeste 23 Sudeste 0 -- -- 83
2019-07-30 22:00:00 22.7 13 Sudeste 26 Sudeste 0 -- -- 77
2019-07-30 21:00:00 23.5 16 Sudeste 30 Sudeste 0 -- -- 72
2019-07-30 20:00:00 25.4 19 Sudeste 37 Este 0 -- -- 65
2019-07-30 19:00:00 26.6 21 Sudeste 40 Sudeste 0 -- -- 60
2019-07-30 18:00:00 27.8 21 Sudeste 40 Sudeste 0 -- -- 56
2019-07-30 17:00:00 28.6 19 Sudeste 44 Sudeste 0 -- -- 54
2019-07-30 16:00:00 29.4 21 Sudeste 43 Este 0 -- -- 51
2019-07-30 15:00:00 30.5 19 Sudeste 36 Sudeste 0 -- -- 46
2019-07-30 14:00:00 30.5 15 Sudeste 28 Sudeste 0 -- -- 41
2019-07-30 13:00:00 29.9 14 Sudeste 24 Sudeste 0 -- -- 41
2019-07-30 12:00:00 28.5 10 Sudeste 24 Sudeste 0 -- -- 43
2019-07-30 11:00:00 26.9 12 Sudeste 25 Sudeste 0 -- -- 46
2019-07-30 10:00:00 25.4 5 Sur 9 Sur 0 -- -- 46
2019-07-30 09:00:00 24 3 Este 8 Nordeste 0 -- -- 40
2019-07-30 08:00:00 19.9 4 Nordeste 8 Norte 0 -- -- 53
2019-07-30 07:00:00 19.9 4 Noroeste 12 Oeste 0 -- -- 53
2019-07-30 06:00:00 20.8 6 Noroeste 13 Sudoeste 0 -- -- 52
2019-07-30 05:00:00 20.2 2 Norte 21 Oeste 0 -- -- 59
2019-07-30 04:00:00 20.5 3 Noroeste 9 Noroeste 0 -- -- 59
2019-07-30 03:00:00 20.8 0 Calma 6 Norte 0 -- -- 59
2019-07-30 02:00:00 21.6 0 Calma 6 Nordeste 0 -- -- 59
2019-07-30 01:00:00 22.9 0 Calma 5 Sudoeste 0 -- -- 57
2019-07-30 00:00:00 24.8 0 Calma 12 Nordeste 0 -- -- 52
2019-07-29 23:00:00 25.9 6 Nordeste 11 Este 0 -- -- 47
2019-07-29 22:00:00 27.1 8 Nordeste 15 Este 0 -- -- 47
2019-07-29 21:00:00 28.7 10 Este 24 Este 0 -- -- 44
2019-07-29 20:00:00 30.5 15 Este 32 Este 0 -- -- 40
2019-07-29 19:00:00 31.5 19 Este 37 Sudeste 0 -- -- 39
2019-07-29 18:00:00 33 18 Este 34 Sudeste 0 -- -- 39
2019-07-29 17:00:00 33.8 19 Sudeste 31 Sudeste 0 -- -- 36
2019-07-29 16:00:00 35.1 12 Sudoeste 30 Sudoeste 0 -- -- 24
2019-07-29 15:00:00 34.7 10 Sudeste 27 Sudeste 0 -- -- 28
2019-07-29 14:00:00 33.3 13 Sudeste 29 Sudeste 0 -- -- 32
2019-07-29 13:00:00 32.2 9 Sur 20 Sudeste 0 -- -- 33
2019-07-29 12:00:00 31.5 7 Sudeste 17 Sudeste 0 -- -- 34
2019-07-29 11:00:00 29.4 6 Sudeste 13 Sudoeste 0 -- -- 39
2019-07-29 10:00:00 25 5 Sur 17 Noroeste 0 -- -- 50
2019-07-29 09:00:00 21.6 6 Noroeste 10 Noroeste 0 -- -- 59
2019-07-29 08:00:00 18.7 3 Noroeste 11 Oeste 0 -- -- 68
2019-07-29 07:00:00 17.1 2 Oeste 8 Oeste 0 -- -- 74
2019-07-29 06:00:00 17 6 Oeste 10 Oeste 0 -- -- 73
2019-07-29 05:00:00 16.9 0 Calma 4 Norte 0 -- -- 78
2019-07-29 04:00:00 17.3 0 Calma 4 Noroeste 0 -- -- 76
2019-07-29 03:00:00 17.7 0 Calma 4 Nordeste 0 -- -- 75
2019-07-29 02:00:00 18.4 2 Oeste 5 Nordeste 0 -- -- 73
2019-07-29 01:00:00 19 0 Calma 6 Nordeste 0 -- -- 70
2019-07-29 00:00:00 19.9 4 Nordeste 6 Norte 0 -- -- 69
2019-07-28 23:00:00 21.1 3 Este 9 Nordeste 0 -- -- 67
2019-07-28 22:00:00 22.1 9 Este 22 Sudeste 0 -- -- 66
2019-07-28 21:00:00 23.9 14 Sudeste 27 Sudeste 0 -- -- 56
2019-07-28 20:00:00 26.3 16 Sudeste 33 Sudeste 0 -- -- 44
2019-07-28 19:00:00 27.1 19 Sudeste 33 Sudeste 0 -- -- 41
2019-07-28 18:00:00 28.1 19 Sudeste 38 Sudeste 0 -- -- 39
2019-07-28 17:00:00 29.2 21 Sudeste 37 Sudeste 0 -- -- 36
2019-07-28 16:00:00 29.6 24 Sudeste 42 Sudeste 0 -- -- 32
2019-07-28 15:00:00 30.8 8 Sur 22 Oeste 0 -- -- 23
2019-07-28 14:00:00 29.9 12 Oeste 31 Oeste 0 -- -- 22
2019-07-28 13:00:00 27.8 16 Sudoeste 30 Oeste 0 -- -- 26
2019-07-28 12:00:00 26 11 Oeste 22 Oeste 0 -- -- 35
2019-07-28 11:00:00 23.5 13 Oeste 26 Oeste 0 -- -- 40
2019-07-28 10:00:00 21.6 12 Oeste 21 Sudoeste 0 -- -- 46
2019-07-28 09:00:00 19 11 Oeste 30 Oeste 0 -- -- 53
2019-07-28 08:00:00 17.2 13 Oeste 31 Oeste 0 -- -- 60
2019-07-28 07:00:00 17 17 Oeste 33 Oeste 0 -- -- 61
2019-07-28 06:00:00 17.5 13 Oeste 32 Oeste 0 -- -- 60
2019-07-28 05:00:00 18.2 13 Oeste 29 Oeste 0 -- -- 58
2019-07-28 04:00:00 18.9 16 Oeste 30 Noroeste 0 -- -- 57
2019-07-28 03:00:00 19.8 13 Oeste 29 Oeste 0 -- -- 55
2019-07-28 02:00:00 20.4 14 Oeste 26 Oeste 0 -- -- 54
2019-07-28 01:00:00 21.1 6 Oeste 14 Oeste 0 -- -- 53
2019-07-28 00:00:00 22.3 3 Noroeste 17 Noroeste 0 -- -- 49
2019-07-27 23:00:00 24 9 Noroeste 35 Norte 0 -- -- 44
2019-07-26 12:00:00 -- -- -- -- -- -- -- -- --
2019-07-26 11:00:00 26.2 2 Este 7 Sur 0 -- -- 44
2019-07-26 10:00:00 23.1 4 Sudeste 8 Oeste 0 -- -- 52
2019-07-26 09:00:00 21 3 Oeste 7 Sudoeste 0 -- -- 58
2019-07-26 08:00:00 20.1 0 Calma 6 Oeste 0 -- -- 59
2019-07-26 07:00:00 18.7 3 Oeste 9 Noroeste 0 -- -- 64
2019-07-26 06:00:00 18.8 3 Noroeste 7 Oeste 0 -- -- 64
2019-07-26 05:00:00 19.3 0 Calma 6 Oeste 0 -- -- 65
2019-07-26 04:00:00 20 0 Calma 8 Sudoeste 0 -- -- 63
2019-07-26 03:00:00 20.5 2 Nordeste 6 Sudoeste 0 -- -- 62
2019-07-26 02:00:00 21.3 3 Oeste 8 Nordeste 0 -- -- 62
2019-07-26 01:00:00 22.3 3 Noroeste 8 Norte 0 -- -- 58
2019-07-26 00:00:00 23.3 3 Norte 6 Este 0 -- -- 56
2019-07-25 23:00:00 24.3 4 Este 10 Este 0 -- -- 55
2019-07-25 22:00:00 25.6 7 Sudeste 21 Este 0 -- -- 50
2019-07-25 21:00:00 27.3 12 Sudeste 25 Sudeste 0 -- -- 46
2019-07-25 20:00:00 29.7 16 Sudeste 33 Sur 0 -- -- 43
2019-07-25 19:00:00 30.8 18 Sudeste 37 Sudeste 0 -- -- 43
2019-07-25 18:00:00 32.3 19 Sudeste 35 Este 0 -- -- 38
2019-07-25 17:00:00 33.4 19 Sudeste 35 Sudeste 0 -- -- 35
2019-07-25 16:00:00 33.9 20 Sudeste 37 Sudeste 0 -- -- 33
2019-07-25 15:00:00 34.5 19 Este 31 Este 0 -- -- 28
2019-07-25 14:00:00 34 18 Sudeste 32 Sudeste 0 -- -- 29
2019-07-25 13:00:00 33.8 12 Sudeste 21 Sudeste 0 -- -- 28
2019-07-25 12:00:00 31.5 9 Sudeste 18 Sur 0 -- -- 29
2019-07-25 11:00:00 29.4 4 Sudeste 7 Sudoeste 0 -- -- 31
2019-07-25 10:00:00 26.2 3 Este 6 Sudeste 0 -- -- 35
2019-07-25 09:00:00 22.3 0 Calma 10 Oeste 0 -- -- 44
2019-07-25 08:00:00 19.3 3 Oeste 7 Oeste 0 -- -- 52
2019-07-25 07:00:00 18.3 0 Calma 13 Oeste 0 -- -- 52
2019-07-25 06:00:00 18.6 3 Oeste 7 Oeste 0 -- -- 55
2019-07-25 05:00:00 18.9 4 Noroeste 6 Oeste 0 -- -- 54
2019-07-25 04:00:00 19.8 3 Oeste 5 Noroeste 0 -- -- 53
2019-07-25 03:00:00 20.2 0 Calma 5 Nordeste 0 -- -- 54
2019-07-25 02:00:00 21.1 3 Noroeste 6 Norte 0 -- -- 52
2019-07-25 01:00:00 22.2 4 Nordeste 6 Norte 0 -- -- 47
2019-07-25 00:00:00 23.6 4 Nordeste 11 Nordeste 0 -- -- 45
2019-07-24 23:00:00 25.4 7 Nordeste 13 Este 0 -- -- 42
2019-07-24 22:00:00 26.5 8 Este 18 Sudeste 0 -- -- 40
2019-07-24 21:00:00 28.7 10 Sudeste 29 Sudeste 0 -- -- 37
2019-07-24 20:00:00 30.8 17 Sudeste 36 Sudeste 0 -- -- 32
2019-07-24 19:00:00 32.5 18 Sudeste 36 Este 0 -- -- 29
2019-07-24 18:00:00 33.2 23 Sudeste 38 Sudeste 0 -- -- 29
2019-07-24 17:00:00 34.6 15 Sudeste 36 Este 0 -- -- 28
2019-07-24 16:00:00 34.6 18 Sudeste 37 Sudeste 0 -- -- 26
2019-07-24 15:00:00 34.5 19 Sudeste 36 Sudeste 0 -- -- 25
2019-07-24 14:00:00 34.4 13 Sudeste 26 Sudeste 0 -- -- 26
2019-07-24 13:00:00 33.4 12 Sudeste 22 Sudeste 0 -- -- 25
2019-07-24 12:00:00 32.5 9 Sudeste 22 Sudeste 0 -- -- 26
2019-07-24 11:00:00 29.3 2 Sudeste 5 Este 0 -- -- 30
2019-07-24 10:00:00 26.4 2 Este 5 Sudoeste 0 -- -- 42
2019-07-24 09:00:00 23.6 3 Oeste 6 Sudoeste 0 -- -- 48
2019-07-24 08:00:00 22.3 2 Este 8 Oeste 0 -- -- 48
2019-07-24 07:00:00 20.6 7 Oeste 10 Sudoeste 0 -- -- 51
2019-07-24 06:00:00 20.3 4 Norte 6 Norte 0 -- -- 50
2019-07-24 05:00:00 21.3 2 Oeste 8 Oeste 0 -- -- 48
2019-07-24 04:00:00 21.8 4 Noroeste 9 Oeste 0 -- -- 46
2019-07-24 03:00:00 21.2 4 Norte 7 Sudoeste 0 -- -- 45
2019-07-24 02:00:00 21.7 3 Noroeste 12 Sudoeste 0 -- -- 45
2019-07-24 01:00:00 22.9 3 Oeste 6 Oeste 0 -- -- 43
2019-07-24 00:00:00 24 4 Norte 13 Nordeste 0 -- -- 41